createdAt,value
2023-01-09T00:01:51.763Z,6.94
2023-01-09T00:04:18.727Z,6.96
2023-01-09T00:06:50.174Z,6.93
2023-01-09T00:09:16.692Z,6.91
2023-01-09T00:11:43.186Z,6.85
2023-01-09T00:14:11.067Z,6.91
2023-01-09T00:16:38.052Z,6.91
2023-01-09T00:19:04.835Z,6.91
2023-01-09T00:21:31.387Z,6.89
2023-01-09T00:23:57.912Z,6.90
2023-01-09T00:26:24.641Z,6.92
2023-01-09T00:28:51.418Z,6.98
2023-01-09T00:31:18.168Z,6.88
2023-01-09T00:33:46.007Z,6.83
2023-01-09T00:36:12.559Z,6.84
2023-01-09T00:38:39.086Z,6.89
2023-01-09T00:41:11.560Z,6.87
2023-01-09T00:43:40.937Z,6.91
2023-01-09T00:46:07.489Z,6.84
2023-01-09T00:48:34.048Z,6.86
2023-01-09T00:51:00.596Z,6.93
2023-01-09T00:53:29.389Z,6.95
2023-01-09T00:55:58.413Z,6.86
2023-01-09T00:58:24.894Z,6.86
2023-01-09T01:00:51.451Z,6.82
2023-01-09T01:03:17.972Z,6.79
2023-01-09T01:06:02.957Z,6.84
2023-01-09T01:08:29.425Z,6.82
2023-01-09T01:10:55.908Z,6.82
2023-01-09T01:13:22.395Z,6.77
2023-01-09T01:15:48.912Z,6.75
2023-01-09T01:18:15.469Z,6.73
2023-01-09T01:20:42.957Z,6.73
2023-01-09T01:23:09.510Z,6.75
2023-01-09T01:25:40.110Z,6.75
2023-01-09T01:28:06.694Z,6.74
2023-01-09T01:30:33.699Z,6.74
2023-01-09T01:33:00.393Z,6.72
2023-01-09T01:35:26.943Z,6.68
2023-01-09T01:37:53.458Z,6.70
2023-01-09T01:40:20.261Z,6.73
2023-01-09T01:42:50.898Z,6.69
2023-01-09T01:45:22.225Z,6.71
2023-01-09T01:47:55.001Z,6.65
2023-01-09T01:50:29.861Z,6.74
2023-01-09T01:52:59.403Z,6.65
2023-01-09T01:55:26.174Z,6.75
2023-01-09T01:57:54.979Z,6.67
2023-01-09T02:00:22.629Z,6.68
2023-01-09T02:02:49.202Z,6.63
2023-01-09T02:05:15.747Z,6.62
2023-01-09T02:07:42.522Z,6.64
2023-01-09T02:10:09.407Z,6.71
2023-01-09T02:12:35.884Z,6.62
2023-01-09T02:15:13.830Z,6.62
2023-01-09T02:18:28.598Z,6.58
2023-01-09T02:21:25.265Z,6.55
2023-01-09T02:24:20.262Z,6.60
2023-01-09T02:27:22.321Z,6.63
2023-01-09T02:30:19.329Z,6.63
2023-01-09T02:33:13.229Z,6.54
2023-01-09T02:36:01.003Z,6.52
2023-01-09T02:38:53.721Z,6.49
2023-01-09T02:41:47.405Z,6.49
2023-01-09T02:44:24.631Z,6.40
2023-01-09T02:47:05.001Z,6.43
2023-01-09T02:49:32.313Z,6.40
2023-01-09T02:52:09.151Z,6.39
2023-01-09T02:54:40.768Z,6.32
2023-01-09T02:57:11.382Z,6.34
2023-01-09T02:59:54.157Z,6.34
2023-01-09T03:02:34.442Z,6.41
2023-01-09T03:05:03.791Z,6.35
2023-01-09T03:07:35.107Z,6.30
2023-01-09T03:10:09.869Z,6.24
2023-01-09T03:12:36.347Z,6.19
2023-01-09T03:15:02.852Z,6.20
2023-01-09T03:17:40.305Z,6.09
2023-01-09T03:20:07.533Z,6.17
2023-01-09T03:22:34.018Z,6.27
2023-01-09T03:25:00.493Z,6.05
2023-01-09T03:27:27.006Z,6.08
2023-01-09T03:29:53.477Z,6.03
2023-01-09T03:32:20.044Z,5.96
2023-01-09T03:34:46.511Z,5.93
2023-01-09T03:37:13.015Z,5.96
2023-01-09T03:39:39.535Z,5.89
2023-01-09T03:42:06.047Z,5.94
2023-01-09T03:44:32.497Z,5.83
2023-01-09T03:46:58.982Z,5.70
2023-01-09T03:49:25.442Z,5.69
2023-01-09T03:51:51.909Z,5.75
2023-01-09T03:54:18.368Z,5.71
2023-01-09T03:56:44.834Z,5.70
2023-01-09T03:59:11.302Z,5.86
2023-01-09T04:01:37.978Z,5.80
2023-01-09T04:04:04.638Z,5.73
2023-01-09T04:06:31.155Z,5.71
2023-01-09T04:08:57.629Z,5.76
2023-01-09T04:11:24.145Z,5.67
2023-01-09T04:13:50.619Z,5.69
2023-01-09T04:16:17.162Z,5.74
2023-01-09T04:18:43.649Z,5.68
2023-01-09T04:21:10.223Z,5.68
2023-01-09T04:23:36.723Z,5.69
2023-01-09T04:26:03.445Z,5.73
2023-01-09T04:28:30.164Z,5.67
2023-01-09T04:30:56.686Z,5.69
2023-01-09T04:33:23.174Z,5.61
2023-01-09T04:35:49.633Z,5.60
2023-01-09T04:38:16.102Z,5.64
2023-01-09T04:40:42.577Z,5.56
2023-01-09T04:43:09.048Z,5.60
2023-01-09T04:45:35.586Z,5.66
2023-01-09T04:48:02.078Z,5.65
2023-01-09T04:50:29.955Z,5.61
2023-01-09T04:52:57.797Z,5.57
2023-01-09T04:55:24.284Z,5.58
2023-01-09T04:57:50.778Z,5.55
2023-01-09T05:00:17.291Z,5.49
2023-01-09T05:02:43.762Z,5.55
2023-01-09T05:05:11.677Z,5.57
2023-01-09T05:07:38.461Z,5.55
2023-01-09T05:10:05.412Z,5.51
2023-01-09T05:12:31.904Z,5.55
2023-01-09T05:14:58.363Z,5.51
2023-01-09T05:17:24.846Z,5.55
2023-01-09T05:19:51.369Z,5.55
2023-01-09T05:22:17.877Z,5.47
2023-01-09T05:24:44.401Z,5.52
2023-01-09T05:27:10.908Z,5.57
2023-01-09T05:29:37.381Z,5.56
2023-01-09T05:32:03.982Z,5.44
2023-01-09T05:34:30.516Z,5.42
2023-01-09T05:36:57.003Z,5.42
2023-01-09T05:39:23.748Z,5.40
2023-01-09T05:41:50.277Z,5.47
2023-01-09T05:44:16.813Z,5.52
2023-01-09T05:46:43.303Z,5.46
2023-01-09T05:49:09.751Z,5.52
2023-01-09T05:51:36.310Z,5.38
2023-01-09T05:54:04.028Z,5.43
2023-01-09T05:56:30.525Z,5.39
2023-01-09T05:58:56.997Z,5.43
2023-01-09T06:01:23.969Z,5.32
2023-01-09T06:03:50.590Z,5.25
2023-01-09T06:06:17.076Z,5.25
2023-01-09T06:08:43.565Z,5.21
2023-01-09T06:11:10.063Z,5.06
2023-01-09T06:13:36.548Z,5.18
2023-01-09T06:16:03.174Z,5.14
2023-01-09T06:18:29.689Z,5.16
2023-01-09T06:20:56.179Z,5.23
2023-01-09T06:23:22.649Z,5.23
2023-01-09T06:25:49.128Z,5.13
2023-01-09T06:28:15.647Z,5.25
2023-01-09T06:30:42.114Z,5.23
2023-01-09T06:33:08.604Z,5.25
2023-01-09T06:35:35.088Z,5.19
2023-01-09T06:38:03.332Z,5.24
2023-01-09T06:40:29.806Z,5.20
2023-01-09T06:42:56.631Z,5.27
2023-01-09T06:45:23.130Z,5.33
2023-01-09T06:47:50.105Z,5.26
2023-01-09T06:50:16.967Z,5.17
2023-01-09T06:52:43.449Z,5.15
2023-01-09T06:55:09.988Z,5.10
2023-01-09T06:57:36.457Z,5.06
2023-01-09T07:00:03.279Z,5.05
2023-01-09T07:02:29.936Z,5.14
2023-01-09T07:04:56.423Z,5.06
2023-01-09T07:07:22.927Z,4.98
2023-01-09T07:09:49.512Z,5.00
2023-01-09T07:12:16.041Z,4.91
2023-01-09T07:14:42.532Z,4.80
2023-01-09T07:17:11.672Z,4.74
2023-01-09T07:19:38.146Z,4.77
2023-01-09T07:22:05.667Z,4.73
2023-01-09T07:24:32.184Z,4.58
2023-01-09T07:26:58.676Z,4.53
2023-01-09T07:29:25.155Z,4.62
2023-01-09T07:31:51.711Z,4.49
2023-01-09T07:34:18.389Z,4.58
2023-01-09T07:36:46.657Z,4.61
2023-01-09T07:39:13.647Z,4.52
2023-01-09T07:41:40.203Z,4.48
2023-01-09T07:44:08.972Z,4.58
2023-01-09T07:46:36.739Z,4.51
2023-01-09T07:49:03.326Z,4.56
2023-01-09T07:51:30.098Z,4.49
2023-01-09T07:53:56.564Z,4.53
2023-01-09T07:56:23.035Z,4.43
2023-01-09T07:58:49.510Z,4.44
2023-01-09T08:01:16.071Z,4.42
2023-01-09T08:03:42.609Z,4.50
2023-01-09T08:06:10.199Z,4.49
2023-01-09T08:08:36.667Z,4.50
2023-01-09T08:11:03.176Z,4.50
2023-01-09T08:13:29.644Z,4.51
2023-01-09T08:15:56.200Z,4.60
2023-01-09T08:18:22.682Z,4.69
2023-01-09T08:20:49.731Z,4.68
2023-01-09T08:23:16.209Z,4.71
2023-01-09T08:25:42.666Z,4.81
2023-01-09T08:28:12.260Z,4.77
2023-01-09T08:30:38.754Z,4.80
2023-01-09T08:33:05.874Z,4.79
2023-01-09T08:35:32.484Z,4.75
2023-01-09T08:37:58.973Z,4.85
2023-01-09T08:40:25.510Z,4.87
2023-01-09T08:43:10.383Z,4.93
2023-01-09T08:45:55.347Z,5.14
2023-01-09T08:48:21.865Z,5.15
2023-01-09T08:50:48.476Z,5.25
2023-01-09T08:53:15.534Z,5.18
2023-01-09T08:55:42.601Z,5.25
2023-01-09T08:58:09.086Z,5.29
2023-01-09T09:00:35.886Z,5.41
2023-01-09T09:03:02.453Z,5.40
2023-01-09T09:05:29.861Z,5.32
2023-01-09T09:07:56.418Z,5.37
2023-01-09T09:10:23.546Z,5.39
2023-01-09T09:12:50.833Z,5.41
2023-01-09T09:15:23.745Z,5.43
2023-01-09T09:17:51.366Z,5.47
2023-01-09T09:20:17.882Z,5.48
2023-01-09T09:22:46.131Z,5.46
2023-01-09T09:25:12.606Z,5.46
2023-01-09T09:27:39.134Z,5.50
2023-01-09T09:30:06.260Z,5.62
2023-01-09T09:32:32.774Z,5.75
2023-01-09T09:34:59.331Z,5.66
2023-01-09T09:37:25.840Z,5.64
2023-01-09T09:39:52.310Z,5.66
2023-01-09T09:42:55.974Z,5.76
2023-01-09T09:45:43.499Z,5.70
2023-01-09T09:48:28.453Z,5.83
2023-01-09T09:51:01.432Z,5.79
2023-01-09T09:53:40.569Z,5.74
2023-01-09T09:56:10.773Z,5.83
2023-01-09T09:58:37.811Z,6.11
2023-01-09T10:01:04.828Z,6.35
2023-01-09T10:03:46.000Z,6.54
2023-01-09T10:06:16.673Z,6.76
2023-01-09T10:08:53.416Z,6.94
2023-01-09T10:11:30.882Z,6.96
2023-01-09T10:14:16.013Z,6.99
2023-01-09T10:16:58.234Z,7.09
2023-01-09T10:19:33.654Z,7.29
2023-01-09T10:22:10.468Z,7.44
2023-01-09T10:25:01.462Z,7.44
2023-01-09T10:40:16.993Z,7.61
2023-01-09T10:42:52.134Z,7.69
2023-01-09T10:45:36.554Z,7.52
2023-01-09T10:48:21.704Z,7.58
2023-01-09T10:50:48.811Z,7.65
2023-01-09T10:53:36.323Z,7.50
2023-01-09T10:56:08.401Z,7.50
2023-01-09T10:58:34.873Z,7.47
2023-01-09T11:01:03.073Z,7.37
2023-01-09T11:03:29.633Z,7.45
2023-01-09T11:05:58.415Z,7.49
2023-01-09T11:08:42.097Z,7.20
2023-01-09T11:11:08.910Z,7.10
2023-01-09T11:13:36.631Z,7.08
2023-01-09T11:16:10.627Z,7.01
2023-01-09T11:18:57.716Z,7.04
2023-01-09T11:21:38.162Z,6.89
2023-01-09T11:24:21.241Z,6.89
2023-01-09T11:27:02.221Z,6.81
2023-01-09T11:29:28.812Z,6.78
2023-01-09T11:31:58.809Z,6.74
2023-01-09T11:34:26.590Z,6.71
2023-01-09T11:36:53.740Z,6.70
2023-01-09T11:39:24.852Z,6.58
2023-01-09T11:42:02.358Z,6.48
2023-01-09T11:44:28.928Z,6.46
2023-01-09T11:46:55.442Z,6.41
2023-01-09T11:49:29.536Z,6.52
2023-01-09T11:52:15.891Z,6.54
2023-01-09T11:55:04.299Z,6.50
2023-01-09T11:57:30.792Z,6.63
2023-01-09T11:59:59.103Z,6.70
2023-01-09T12:02:45.236Z,6.76
2023-01-09T12:05:25.534Z,6.75
2023-01-09T12:08:03.085Z,6.74
2023-01-09T12:11:04.995Z,6.55
2023-01-09T12:13:53.254Z,6.48
2023-01-09T12:16:38.821Z,6.33
2023-01-09T12:19:24.079Z,6.29
2023-01-09T12:22:15.942Z,6.36
2023-01-09T12:25:39.926Z,6.32
2023-01-09T12:28:15.591Z,6.46
2023-01-09T12:31:14.434Z,6.37
2023-01-09T12:33:52.135Z,6.36
2023-01-09T12:36:59.299Z,6.39
2023-01-09T12:39:54.518Z,6.41
2023-01-09T12:42:28.065Z,6.36
2023-01-09T12:45:01.282Z,6.39
2023-01-09T12:47:39.881Z,6.40
2023-01-09T12:50:28.701Z,6.43
2023-01-09T12:53:18.914Z,6.54
2023-01-09T12:56:05.506Z,6.56
2023-01-09T12:58:51.000Z,6.50
2023-01-09T13:01:21.730Z,6.51
2023-01-09T13:03:55.178Z,6.45
2023-01-09T13:06:21.690Z,6.63
2023-01-09T13:08:51.372Z,6.57
2023-01-09T13:12:10.771Z,6.53
2023-01-09T13:15:02.148Z,6.49
2023-01-09T13:17:36.730Z,6.59
2023-01-09T13:20:10.531Z,6.57
2023-01-09T13:22:37.045Z,6.73
2023-01-09T13:25:03.366Z,6.64
2023-01-09T13:27:32.604Z,6.62
2023-01-09T13:30:11.235Z,6.54
2023-01-09T13:32:49.942Z,6.55
2023-01-09T13:35:16.459Z,6.60
2023-01-09T13:37:42.964Z,6.70
2023-01-09T13:40:18.474Z,6.68
2023-01-09T13:42:51.455Z,6.63
2023-01-09T13:45:17.777Z,6.75
2023-01-09T13:47:44.611Z,6.66
2023-01-09T13:50:10.889Z,6.69
2023-01-09T13:52:37.407Z,6.66
2023-01-09T13:55:11.113Z,6.76
2023-01-09T13:58:05.445Z,6.69
2023-01-09T14:00:34.728Z,6.58
2023-01-09T14:03:19.416Z,6.70
2023-01-09T14:05:45.754Z,6.59
2023-01-09T14:08:13.797Z,6.31
2023-01-09T14:10:43.109Z,5.74
2023-01-09T14:13:32.289Z,5.26
2023-01-09T14:16:15.036Z,5.09
2023-01-09T14:19:05.612Z,5.01
2023-01-09T14:21:46.404Z,5.06
2023-01-09T14:24:20.337Z,5.03
2023-01-09T14:26:55.214Z,4.95
2023-01-09T14:29:29.313Z,4.96
2023-01-09T14:32:23.666Z,5.06
2023-01-09T14:34:54.335Z,5.09
2023-01-09T14:37:20.835Z,5.15
2023-01-09T14:39:47.406Z,5.17
2023-01-09T14:42:15.876Z,5.08
2023-01-09T14:45:01.344Z,4.94
2023-01-09T14:47:30.783Z,4.86
2023-01-09T14:50:17.565Z,4.87
2023-01-09T14:52:52.038Z,4.94
2023-01-09T14:55:34.133Z,5.02
2023-01-09T14:58:21.008Z,4.85
2023-01-09T15:00:52.415Z,4.88
2023-01-09T15:03:19.445Z,4.90
2023-01-09T15:05:45.920Z,4.86
2023-01-09T15:08:16.816Z,4.86
2023-01-09T15:10:43.752Z,4.88
2023-01-09T15:13:31.399Z,5.01
2023-01-09T15:15:58.163Z,4.95
2023-01-09T15:18:25.751Z,4.94
2023-01-09T15:20:54.499Z,5.01
2023-01-09T15:23:22.955Z,4.98
2023-01-09T15:25:49.458Z,4.96
2023-01-09T15:28:27.587Z,4.99
2023-01-09T15:30:56.878Z,5.03
2023-01-09T15:33:23.365Z,5.09
2023-01-09T15:35:50.517Z,5.11
2023-01-09T15:38:23.705Z,5.19
2023-01-09T15:41:06.740Z,5.15
2023-01-09T15:43:33.337Z,5.13
2023-01-09T15:45:59.854Z,5.31
2023-01-09T15:48:32.410Z,5.21
2023-01-09T15:51:10.624Z,5.27
2023-01-09T15:53:37.095Z,5.27
2023-01-09T15:56:12.540Z,5.23
2023-01-09T15:58:47.016Z,5.33
2023-01-09T16:01:25.010Z,5.25
2023-01-09T16:03:52.258Z,5.28
2023-01-09T16:06:28.976Z,5.33
2023-01-09T16:08:57.720Z,5.29
2023-01-09T16:11:37.042Z,5.36
2023-01-09T16:14:19.189Z,5.36
2023-01-09T16:16:46.144Z,5.31
2023-01-09T16:19:33.255Z,5.36
2023-01-09T16:22:01.032Z,5.37
2023-01-09T16:24:34.588Z,5.39
2023-01-09T16:27:21.648Z,5.36
2023-01-09T16:29:49.831Z,5.45
2023-01-09T16:32:23.772Z,5.32
2023-01-09T16:34:57.440Z,5.30
2023-01-09T16:37:24.714Z,5.27
2023-01-09T16:40:22.073Z,5.28
2023-01-09T16:43:01.568Z,5.33
2023-01-09T16:45:29.419Z,5.34
2023-01-09T16:47:57.181Z,5.26
2023-01-09T16:50:24.771Z,5.26
2023-01-09T16:52:51.606Z,5.33
2023-01-09T16:55:18.091Z,5.28
2023-01-09T16:57:44.557Z,5.34
2023-01-09T17:00:18.083Z,5.32
2023-01-09T17:02:44.591Z,5.25
2023-01-09T17:05:11.094Z,5.24
2023-01-09T17:07:38.116Z,5.27
2023-01-09T17:10:05.693Z,5.30
2023-01-09T17:12:32.166Z,5.25
2023-01-09T17:15:00.830Z,5.27
2023-01-09T17:17:27.293Z,5.22
2023-01-09T17:19:53.757Z,5.26
2023-01-09T17:22:20.221Z,5.29
2023-01-09T17:25:06.934Z,5.27
2023-01-09T17:27:55.820Z,5.29
2023-01-09T17:30:22.315Z,5.27
2023-01-09T17:32:48.924Z,5.32
2023-01-09T17:35:15.879Z,5.30
2023-01-09T17:37:42.517Z,5.25
2023-01-09T17:40:27.111Z,5.27
2023-01-09T17:42:53.578Z,5.22
2023-01-09T17:45:20.063Z,5.35
2023-01-09T17:47:46.540Z,5.28
2023-01-09T17:50:17.583Z,5.32
2023-01-09T17:52:44.053Z,5.35
2023-01-09T17:55:10.650Z,5.39
2023-01-09T17:57:37.132Z,5.27
2023-01-09T18:00:06.069Z,5.28
2023-01-09T18:02:32.571Z,5.40
2023-01-09T18:04:59.139Z,5.22
2023-01-09T18:07:25.607Z,5.16
2023-01-09T18:09:52.075Z,5.13
2023-01-09T18:12:18.572Z,5.13
2023-01-09T18:14:46.416Z,5.06
2023-01-09T18:17:13.873Z,4.97
2023-01-09T18:19:40.449Z,4.91
2023-01-09T18:22:06.912Z,5.02
2023-01-09T18:24:33.759Z,4.92
2023-01-09T18:27:00.402Z,4.86
2023-01-09T18:29:27.287Z,4.93
2023-01-09T18:31:53.804Z,4.80
2023-01-09T18:34:20.383Z,4.70
2023-01-09T18:36:47.193Z,4.72
2023-01-09T18:39:31.514Z,4.78
2023-01-09T18:42:07.197Z,4.73
2023-01-09T18:44:33.750Z,4.67
2023-01-09T18:47:01.932Z,4.72
2023-01-09T18:49:28.773Z,4.77
2023-01-09T18:51:55.390Z,4.72
2023-01-09T18:54:21.948Z,4.75
2023-01-09T18:56:48.525Z,4.78
2023-01-09T18:59:15.042Z,4.81
2023-01-09T19:01:41.524Z,4.74
2023-01-09T19:04:08.138Z,4.75
2023-01-09T19:06:34.727Z,4.80
2023-01-09T19:09:01.285Z,4.85
2023-01-09T19:11:27.801Z,4.74
2023-01-09T19:13:54.284Z,4.74
2023-01-09T19:16:20.794Z,4.85
2023-01-09T19:18:47.356Z,4.81
2023-01-09T19:21:15.494Z,4.81
2023-01-09T19:23:42.410Z,4.88
2023-01-09T19:26:10.213Z,5.02
2023-01-09T19:28:38.152Z,4.92
2023-01-09T19:31:04.685Z,4.91
2023-01-09T19:33:31.183Z,4.89
2023-01-09T19:35:57.976Z,4.97
2023-01-09T19:38:24.888Z,5.00
2023-01-09T19:40:51.621Z,4.98
2023-01-09T19:43:27.059Z,4.99
2023-01-09T19:45:54.470Z,5.01
2023-01-09T19:48:22.063Z,4.98
2023-01-09T19:50:48.576Z,5.02
2023-01-09T19:53:15.037Z,4.99
2023-01-09T19:55:41.827Z,5.07
2023-01-09T19:58:08.329Z,5.00
2023-01-09T20:00:35.281Z,4.94
2023-01-09T20:03:01.747Z,4.89
2023-01-09T20:05:28.249Z,4.90
2023-01-09T20:07:55.187Z,4.95
2023-01-09T20:10:21.687Z,5.04
2023-01-09T20:12:48.163Z,5.03
2023-01-09T20:15:14.912Z,5.02
2023-01-09T20:17:42.249Z,5.10
2023-01-09T20:20:09.603Z,5.02
2023-01-09T20:22:36.066Z,4.93
2023-01-09T20:25:02.871Z,4.96
2023-01-09T20:27:29.342Z,4.96
2023-01-09T20:29:55.822Z,4.94
2023-01-09T20:32:22.293Z,4.95
2023-01-09T20:34:48.969Z,4.92
2023-01-09T20:37:15.546Z,5.05
2023-01-09T20:39:42.062Z,5.09
2023-01-09T20:42:08.527Z,5.06
2023-01-09T20:44:34.984Z,4.97
2023-01-09T20:47:01.455Z,4.93
2023-01-09T20:49:27.932Z,4.95
2023-01-09T20:51:54.406Z,4.95
2023-01-09T20:54:23.893Z,5.00
2023-01-09T20:56:50.470Z,5.01
2023-01-09T20:59:20.040Z,4.97
2023-01-09T21:01:46.530Z,4.99
2023-01-09T21:04:13.095Z,4.98
2023-01-09T21:06:39.691Z,5.01
2023-01-09T21:09:06.458Z,5.02
2023-01-09T21:11:32.953Z,4.93
2023-01-09T21:13:59.880Z,4.98
2023-01-09T21:16:26.437Z,4.96
2023-01-09T21:18:53.538Z,4.94
2023-01-09T21:21:22.257Z,4.99
2023-01-09T21:23:51.817Z,4.91
2023-01-09T21:26:22.139Z,4.95
2023-01-09T21:28:49.852Z,4.97
2023-01-09T21:31:19.391Z,4.99
2023-01-09T21:33:46.351Z,4.94
2023-01-09T21:36:12.915Z,4.86
2023-01-09T21:38:39.398Z,4.84
2023-01-09T21:41:35.048Z,4.82
2023-01-09T21:44:19.861Z,4.91
2023-01-09T21:46:52.291Z,4.90
2023-01-09T21:49:19.806Z,4.94
2023-01-09T21:51:46.287Z,4.94
2023-01-09T21:54:12.739Z,4.93
2023-01-09T21:56:39.251Z,5.06
2023-01-09T21:59:05.869Z,4.98
2023-01-09T22:01:32.689Z,4.94
2023-01-09T22:03:59.528Z,5.05
2023-01-09T22:06:26.102Z,4.89
2023-01-09T22:08:52.601Z,4.87
2023-01-09T22:11:19.076Z,4.93
2023-01-09T22:13:48.996Z,4.97
2023-01-09T22:16:15.566Z,4.92
2023-01-09T22:18:42.056Z,4.91
2023-01-09T22:21:08.561Z,4.90
2023-01-09T22:23:35.031Z,5.03
2023-01-09T22:26:09.490Z,5.05
2023-01-09T22:28:35.972Z,4.98
2023-01-09T22:31:02.609Z,4.92
2023-01-09T22:33:29.091Z,4.97
2023-01-09T22:35:55.569Z,5.07
2023-01-09T22:38:22.701Z,5.01
2023-01-09T22:40:49.707Z,4.95
2023-01-09T22:43:17.210Z,5.12
2023-01-09T22:45:43.773Z,5.02
2023-01-09T22:48:10.311Z,5.05
2023-01-09T22:50:37.101Z,5.04
2023-01-09T22:53:03.635Z,4.95
2023-01-09T22:55:30.121Z,5.04
2023-01-09T22:57:56.580Z,4.99
2023-01-09T23:00:23.049Z,5.00
2023-01-09T23:02:49.739Z,4.91
2023-01-09T23:05:16.375Z,4.88
2023-01-09T23:07:42.852Z,4.92
2023-01-09T23:10:09.809Z,4.85
2023-01-09T23:12:36.318Z,4.86
2023-01-09T23:15:02.813Z,4.91
2023-01-09T23:17:29.285Z,4.95
2023-01-09T23:19:55.761Z,4.91
2023-01-09T23:22:22.787Z,4.88
2023-01-09T23:24:49.255Z,4.76
2023-01-09T23:27:15.720Z,4.83
2023-01-09T23:29:42.216Z,4.86
2023-01-09T23:32:08.757Z,4.81
2023-01-09T23:34:35.397Z,4.79
2023-01-09T23:37:03.938Z,4.85
2023-01-09T23:39:30.486Z,4.75
2023-01-09T23:42:15.559Z,4.76
2023-01-09T23:44:42.039Z,4.83
2023-01-09T23:47:08.537Z,4.82
2023-01-09T23:49:34.996Z,4.75
2023-01-09T23:52:06.511Z,5.01
2023-01-09T23:54:33.015Z,4.88
2023-01-09T23:56:59.497Z,4.78
2023-01-09T23:59:26.001Z,4.86
